createdAt,value
2018-03-21T00:00:59.647Z,0.00
2018-03-21T00:01:59.658Z,0.00
2018-03-21T00:02:59.667Z,0.00
2018-03-21T00:03:59.677Z,0.00
2018-03-21T00:04:59.688Z,0.00
2018-03-21T00:05:59.703Z,0.00
2018-03-21T00:06:59.711Z,0.00
2018-03-21T00:07:59.710Z,0.00
2018-03-21T00:08:59.720Z,0.00
2018-03-21T00:09:59.730Z,0.00
2018-03-21T00:10:59.741Z,0.00
2018-03-21T00:11:59.751Z,0.00
2018-03-21T00:12:59.763Z,0.00
2018-03-21T00:13:59.776Z,0.00
2018-03-21T00:14:59.781Z,0.00
2018-03-21T00:15:59.792Z,0.00
2018-03-21T00:16:59.802Z,0.00
2018-03-21T00:17:59.815Z,0.00
2018-03-21T00:18:59.821Z,0.00
2018-03-21T00:19:59.831Z,0.00
2018-03-21T00:20:59.841Z,0.00
2018-03-21T00:21:59.852Z,0.00
2018-03-21T00:22:59.862Z,0.00
2018-03-21T00:23:59.872Z,0.00
2018-03-21T00:24:59.882Z,0.00
2018-03-21T00:25:59.892Z,0.00
2018-03-21T00:26:59.902Z,0.00
2018-03-21T00:27:59.922Z,0.00
2018-03-21T00:28:59.922Z,0.00
2018-03-21T00:29:59.935Z,0.00
2018-03-21T00:30:59.942Z,0.00
2018-03-21T00:31:59.950Z,0.00
2018-03-21T00:32:59.961Z,0.00
2018-03-21T00:33:59.974Z,0.00
2018-03-21T00:34:59.986Z,0.00
2018-03-21T00:35:59.991Z,0.00
2018-03-21T00:37:00.005Z,0.00
2018-03-21T00:38:00.016Z,0.00
2018-03-21T00:39:00.023Z,0.00
2018-03-21T00:40:00.034Z,0.00
2018-03-21T00:41:00.042Z,0.00
2018-03-21T00:42:00.060Z,0.00
2018-03-21T00:43:00.069Z,0.00
2018-03-21T00:44:00.071Z,0.00
2018-03-21T00:45:00.086Z,0.00
2018-03-21T00:46:00.093Z,0.00
2018-03-21T00:47:00.109Z,0.00
2018-03-21T00:48:00.112Z,0.00
2018-03-21T00:49:00.131Z,0.00
2018-03-21T00:50:00.139Z,0.00
2018-03-21T00:51:00.147Z,0.00
2018-03-21T00:52:00.155Z,0.00
2018-03-21T00:53:00.166Z,0.00
2018-03-21T00:54:00.170Z,0.00
2018-03-21T00:55:00.180Z,0.00
2018-03-21T00:56:00.190Z,0.00
2018-03-21T00:57:00.201Z,0.00
2018-03-21T00:58:00.211Z,0.00
2018-03-21T00:59:00.222Z,0.00
2018-03-21T01:00:00.230Z,0.00
2018-03-21T01:01:00.241Z,0.00
2018-03-21T01:02:00.250Z,0.00
2018-03-21T01:03:00.274Z,0.00
2018-03-21T01:04:00.271Z,0.00
2018-03-21T01:05:00.281Z,0.00
2018-03-21T01:06:00.290Z,0.00
2018-03-21T01:07:00.303Z,0.00
2018-03-21T01:08:00.310Z,0.00
2018-03-21T01:09:00.322Z,0.00
2018-03-21T01:10:00.330Z,0.00
2018-03-21T01:11:00.339Z,0.00
2018-03-21T01:12:00.349Z,0.00
2018-03-21T01:13:00.359Z,0.00
2018-03-21T01:14:00.369Z,0.00
2018-03-21T01:15:00.380Z,0.00
2018-03-21T01:16:00.389Z,0.00
2018-03-21T01:17:00.398Z,0.00
2018-03-21T01:18:00.409Z,0.00
2018-03-21T01:19:00.419Z,0.00
2018-03-21T01:20:00.428Z,0.00
2018-03-21T01:21:00.443Z,0.00
2018-03-21T01:22:00.448Z,0.00
2018-03-21T01:23:00.460Z,0.00
2018-03-21T01:24:00.468Z,0.00
2018-03-21T01:25:00.481Z,0.00
2018-03-21T01:26:00.491Z,0.00
2018-03-21T01:27:00.499Z,0.00
2018-03-21T01:28:00.506Z,0.00
2018-03-21T01:29:00.519Z,0.00
2018-03-21T01:30:00.525Z,0.00
2018-03-21T01:31:00.537Z,0.00
2018-03-21T01:32:00.549Z,0.00
2018-03-21T01:33:00.556Z,0.00
2018-03-21T01:34:00.569Z,0.00
2018-03-21T01:35:00.576Z,0.00
2018-03-21T01:36:00.585Z,0.00
2018-03-21T01:37:00.596Z,0.00
2018-03-21T01:38:00.607Z,0.00
2018-03-21T01:39:00.616Z,0.00
2018-03-21T01:40:00.626Z,0.00
2018-03-21T01:41:00.635Z,0.00
2018-03-21T01:42:00.645Z,0.00
2018-03-21T01:43:00.655Z,0.00
2018-03-21T01:44:00.664Z,0.00
2018-03-21T01:45:00.674Z,0.00
2018-03-21T01:46:00.684Z,0.00
2018-03-21T01:47:00.696Z,0.00
2018-03-21T01:48:00.702Z,0.00
2018-03-21T01:49:00.711Z,0.00
2018-03-21T01:50:00.773Z,0.00
2018-03-21T01:51:00.734Z,0.00
2018-03-21T01:52:00.743Z,0.00
2018-03-21T01:53:00.752Z,0.00
2018-03-21T01:54:00.762Z,0.00
2018-03-21T01:55:00.777Z,0.00
2018-03-21T01:56:00.782Z,0.00
2018-03-21T01:57:00.792Z,0.00
2018-03-21T01:58:00.802Z,0.00
2018-03-21T01:59:00.811Z,0.00
2018-03-21T02:00:00.820Z,0.00
2018-03-21T02:01:00.830Z,0.00
2018-03-21T02:02:00.840Z,0.00
2018-03-21T02:03:00.852Z,0.00
2018-03-21T02:04:00.859Z,0.00
2018-03-21T02:05:00.869Z,0.00
2018-03-21T02:06:00.880Z,0.00
2018-03-21T02:07:00.892Z,0.00
2018-03-21T02:08:00.898Z,0.00
2018-03-21T02:09:00.915Z,0.00
2018-03-21T02:10:00.920Z,0.00
2018-03-21T02:11:00.927Z,0.00
2018-03-21T02:12:00.937Z,0.00
2018-03-21T02:13:00.947Z,0.00
2018-03-21T02:14:00.956Z,0.00
2018-03-21T02:15:00.967Z,0.00
2018-03-21T02:16:00.978Z,0.00
2018-03-21T02:17:00.986Z,0.00
2018-03-21T02:18:00.996Z,0.00
2018-03-21T02:19:01.007Z,0.00
2018-03-21T02:20:01.013Z,0.00
2018-03-21T02:21:01.024Z,0.00
2018-03-21T02:22:01.034Z,0.00
2018-03-21T02:23:01.045Z,0.00
2018-03-21T02:24:01.053Z,0.00
2018-03-21T02:25:01.063Z,0.00
2018-03-21T02:26:01.074Z,0.00
2018-03-21T02:27:01.082Z,0.00
2018-03-21T02:28:01.093Z,0.00
2018-03-21T02:29:01.101Z,0.00
2018-03-21T02:30:01.114Z,0.00
2018-03-21T02:31:01.131Z,0.00
2018-03-21T02:32:01.132Z,0.00
2018-03-21T02:33:01.141Z,0.00
2018-03-21T02:34:01.154Z,0.00
2018-03-21T02:35:01.160Z,0.00
2018-03-21T02:36:01.169Z,0.00
2018-03-21T02:37:01.184Z,0.00
2018-03-21T02:38:01.191Z,0.00
2018-03-21T02:39:01.198Z,0.00
2018-03-21T02:40:01.207Z,0.00
2018-03-21T02:41:01.218Z,0.00
2018-03-21T02:42:01.227Z,0.00
2018-03-21T02:43:01.236Z,0.00
2018-03-21T02:44:01.264Z,0.00
2018-03-21T02:45:01.256Z,0.00
2018-03-21T02:46:01.468Z,0.00
2018-03-21T02:47:01.279Z,0.00
2018-03-21T02:48:01.284Z,0.00
2018-03-21T02:49:01.297Z,0.00
2018-03-21T02:50:01.305Z,0.00
2018-03-21T02:51:01.319Z,0.00
2018-03-21T02:52:01.324Z,0.00
2018-03-21T02:53:01.338Z,0.00
2018-03-21T02:54:01.357Z,0.00
2018-03-21T02:55:01.353Z,0.00
2018-03-21T02:56:01.370Z,0.00
2018-03-21T02:57:01.372Z,0.00
2018-03-21T02:58:01.382Z,0.00
2018-03-21T02:59:01.392Z,0.00
2018-03-21T03:00:01.399Z,0.00
2018-03-21T03:01:01.413Z,0.00
2018-03-21T03:02:01.419Z,0.00
2018-03-21T03:03:01.429Z,0.00
2018-03-21T03:04:01.438Z,0.00
2018-03-21T03:05:01.450Z,0.00
2018-03-21T03:06:01.504Z,0.00
2018-03-21T03:07:01.468Z,0.00
2018-03-21T03:08:01.479Z,0.00
2018-03-21T03:09:01.488Z,0.00
2018-03-21T03:10:01.496Z,0.00
2018-03-21T03:11:01.507Z,0.00
2018-03-21T03:12:01.519Z,0.00
2018-03-21T03:13:01.525Z,0.00
2018-03-21T03:14:01.535Z,0.00
2018-03-21T03:15:01.548Z,0.00
2018-03-21T03:16:01.554Z,0.00
2018-03-21T03:17:01.565Z,0.00
2018-03-21T03:18:01.573Z,0.00
2018-03-21T03:19:01.583Z,0.00
2018-03-21T03:20:01.597Z,0.00
2018-03-21T03:21:01.602Z,0.00
2018-03-21T03:22:01.614Z,0.00
2018-03-21T03:23:01.620Z,0.00
2018-03-21T03:24:01.630Z,0.00
2018-03-21T03:25:01.641Z,0.00
2018-03-21T03:26:01.650Z,0.00
2018-03-21T03:27:01.661Z,0.00
2018-03-21T03:28:01.669Z,0.00
2018-03-21T03:29:01.679Z,0.00
2018-03-21T03:30:01.696Z,0.00
2018-03-21T03:31:01.700Z,0.00
2018-03-21T03:32:01.707Z,0.00
2018-03-21T03:33:01.717Z,0.00
2018-03-21T03:34:01.729Z,0.00
2018-03-21T03:35:01.735Z,0.00
2018-03-21T03:36:01.752Z,0.00
2018-03-21T03:37:01.755Z,0.00
2018-03-21T03:38:01.766Z,0.00
2018-03-21T03:39:01.775Z,0.00
2018-03-21T03:40:01.824Z,0.00
2018-03-21T03:41:01.796Z,0.00
2018-03-21T03:42:01.803Z,0.00
2018-03-21T03:43:01.815Z,0.00
2018-03-21T03:44:01.831Z,0.00
2018-03-21T03:45:01.839Z,0.00
2018-03-21T03:46:01.843Z,0.00
2018-03-21T03:47:01.852Z,0.00
2018-03-21T03:48:01.861Z,0.00
2018-03-21T03:49:01.871Z,0.00
2018-03-21T03:50:01.880Z,0.00
2018-03-21T03:51:01.891Z,0.00
2018-03-21T03:52:01.901Z,0.00
2018-03-21T03:53:01.913Z,0.00
2018-03-21T03:54:01.920Z,0.00
2018-03-21T03:55:01.928Z,0.00
2018-03-21T03:56:01.938Z,0.00
2018-03-21T03:57:01.948Z,0.00
2018-03-21T03:58:01.958Z,0.00
2018-03-21T03:59:01.965Z,0.00
2018-03-21T04:00:01.975Z,0.00
2018-03-21T04:01:01.994Z,0.00
2018-03-21T04:02:01.995Z,0.00
2018-03-21T04:03:02.003Z,0.00
2018-03-21T04:04:02.013Z,0.00
2018-03-21T04:05:02.022Z,0.00
2018-03-21T04:06:02.037Z,0.00
2018-03-21T04:07:02.041Z,0.00
2018-03-21T04:08:02.052Z,0.00
2018-03-21T04:09:02.061Z,0.00
2018-03-21T04:10:02.072Z,0.00
2018-03-21T04:11:02.081Z,0.00
2018-03-21T04:12:02.092Z,0.00
2018-03-21T04:13:02.103Z,0.00
2018-03-21T04:14:02.111Z,0.00
2018-03-21T04:15:02.120Z,0.00
2018-03-21T04:16:02.129Z,0.00
2018-03-21T04:17:02.178Z,0.00
2018-03-21T04:18:02.189Z,0.00
2018-03-21T04:19:02.159Z,0.00
2018-03-21T04:20:02.162Z,0.00
2018-03-21T04:21:02.179Z,0.00
2018-03-21T04:22:02.182Z,0.00
2018-03-21T04:23:02.195Z,0.00
2018-03-21T04:24:02.204Z,0.00
2018-03-21T04:25:02.215Z,0.00
2018-03-21T04:26:02.224Z,0.00
2018-03-21T04:27:02.231Z,0.00
2018-03-21T04:28:02.240Z,0.00
2018-03-21T04:29:02.251Z,0.00
2018-03-21T04:30:02.270Z,0.00
2018-03-21T04:31:02.270Z,0.00
2018-03-21T04:32:02.279Z,0.00
2018-03-21T04:33:02.295Z,0.00
2018-03-21T04:34:02.298Z,0.00
2018-03-21T04:35:02.320Z,0.00
2018-03-21T04:36:02.319Z,0.00
2018-03-21T04:37:02.324Z,0.00
2018-03-21T04:38:02.334Z,0.00
2018-03-21T04:39:02.343Z,0.00
2018-03-21T04:40:02.352Z,0.00
2018-03-21T04:41:02.363Z,0.00
2018-03-21T04:42:02.372Z,0.00
2018-03-21T04:43:02.382Z,0.00
2018-03-21T04:44:02.389Z,0.00
2018-03-21T04:45:02.401Z,0.00
2018-03-21T04:46:02.409Z,4.00
2018-03-21T04:47:02.422Z,4.00
2018-03-21T04:48:02.431Z,4.00
2018-03-21T04:49:02.441Z,4.00
2018-03-21T04:50:02.448Z,4.00
2018-03-21T04:51:02.457Z,4.00
2018-03-21T04:52:02.466Z,4.00
2018-03-21T04:53:02.476Z,4.00
2018-03-21T04:54:02.482Z,4.00
2018-03-21T04:55:02.496Z,4.00
2018-03-21T04:56:02.524Z,4.00
2018-03-21T04:57:02.512Z,4.00
2018-03-21T04:58:02.529Z,4.00
2018-03-21T04:59:02.530Z,4.00
2018-03-21T05:00:02.542Z,0.00
2018-03-21T05:01:02.557Z,0.00
2018-03-21T05:02:02.557Z,4.00
2018-03-21T05:03:02.568Z,4.00
2018-03-21T05:04:02.576Z,4.00
2018-03-21T05:05:02.585Z,4.00
2018-03-21T05:06:02.595Z,4.00
2018-03-21T05:07:02.606Z,4.00
2018-03-21T05:08:02.612Z,4.00
2018-03-21T05:09:02.622Z,8.00
2018-03-21T05:10:02.630Z,8.00
2018-03-21T05:11:02.641Z,8.00
2018-03-21T05:12:02.648Z,4.00
2018-03-21T05:13:02.658Z,4.00
2018-03-21T05:14:02.668Z,8.00
2018-03-21T05:15:02.680Z,8.00
2018-03-21T05:16:02.685Z,12.00
2018-03-21T05:17:02.696Z,12.00
2018-03-21T05:18:02.706Z,16.00
2018-03-21T05:19:02.714Z,20.00
2018-03-21T05:20:02.723Z,20.00
2018-03-21T05:21:02.731Z,24.00
2018-03-21T05:22:02.744Z,28.00
2018-03-21T05:23:02.751Z,32.00
2018-03-21T05:24:02.760Z,36.00
2018-03-21T05:25:02.770Z,40.00
2018-03-21T05:26:02.780Z,44.00
2018-03-21T05:27:02.790Z,52.00
2018-03-21T05:28:02.797Z,56.00
2018-03-21T05:29:02.805Z,64.00
2018-03-21T05:30:02.815Z,72.00
2018-03-21T05:31:02.824Z,80.00
2018-03-21T05:32:02.833Z,84.00
2018-03-21T05:33:02.845Z,96.00
2018-03-21T05:34:02.857Z,104.00
2018-03-21T05:35:02.862Z,116.00
2018-03-21T05:36:02.876Z,128.00
2018-03-21T05:37:02.879Z,136.00
2018-03-21T05:38:02.894Z,152.00
2018-03-21T05:39:02.897Z,160.00
2018-03-21T05:40:02.907Z,176.00
2018-03-21T05:41:02.916Z,188.00
2018-03-21T05:42:02.926Z,196.00
2018-03-21T05:43:02.934Z,212.00
2018-03-21T05:44:02.943Z,228.00
2018-03-21T05:45:02.952Z,240.00
2018-03-21T05:46:02.962Z,252.00
2018-03-21T05:47:02.970Z,264.00
2018-03-21T05:48:02.991Z,284.00
2018-03-21T05:49:02.990Z,304.00
2018-03-21T05:50:03.003Z,324.00
2018-03-21T05:51:03.013Z,344.00
2018-03-21T05:52:03.016Z,364.00
2018-03-21T05:53:03.029Z,376.00
2018-03-21T05:54:03.033Z,400.00
2018-03-21T05:55:03.045Z,424.00
2018-03-21T05:56:03.051Z,444.00
2018-03-21T05:57:03.059Z,460.00
2018-03-21T05:58:03.070Z,476.00
2018-03-21T05:59:03.081Z,496.00
2018-03-21T06:00:03.092Z,504.00
2018-03-21T06:01:03.098Z,512.00
2018-03-21T06:02:03.107Z,520.00
2018-03-21T06:03:03.116Z,540.00
2018-03-21T06:04:03.123Z,556.00
2018-03-21T06:05:03.137Z,556.00
2018-03-21T06:06:03.143Z,560.00
2018-03-21T06:07:03.153Z,568.00
2018-03-21T06:08:03.164Z,592.00
2018-03-21T06:09:03.169Z,588.00
2018-03-21T06:10:03.181Z,588.00
2018-03-21T06:11:03.198Z,616.00
2018-03-21T06:12:03.198Z,608.00
2018-03-21T06:13:03.205Z,600.00
2018-03-21T06:14:03.217Z,552.00
2018-03-21T06:15:03.240Z,480.00
2018-03-21T06:16:03.234Z,448.00
2018-03-21T06:17:03.248Z,464.00
2018-03-21T06:18:03.255Z,456.00
2018-03-21T06:19:03.261Z,456.00
2018-03-21T06:20:03.272Z,496.00
2018-03-21T06:21:03.281Z,540.00
2018-03-21T06:22:03.291Z,536.00
2018-03-21T06:23:03.300Z,484.00
2018-03-21T06:24:03.309Z,500.00
2018-03-21T06:25:03.320Z,516.00
2018-03-21T06:26:03.329Z,520.00
2018-03-21T06:27:03.336Z,524.00
2018-03-21T06:28:03.343Z,492.00
2018-03-21T06:29:03.352Z,508.00
2018-03-21T06:30:03.364Z,492.00
2018-03-21T06:31:03.371Z,524.00
2018-03-21T06:32:03.384Z,548.00
2018-03-21T06:33:03.388Z,544.00
2018-03-21T06:34:03.400Z,536.00
2018-03-21T06:35:03.408Z,580.00
2018-03-21T06:36:03.419Z,632.00
2018-03-21T06:37:03.425Z,632.00
2018-03-21T06:38:03.444Z,644.00
2018-03-21T06:39:03.442Z,668.00
2018-03-21T06:40:03.452Z,676.00
2018-03-21T06:41:03.463Z,664.00
2018-03-21T06:42:03.475Z,700.00
2018-03-21T06:43:03.480Z,744.00
2018-03-21T06:44:03.489Z,768.00
2018-03-21T06:45:03.502Z,764.00
2018-03-21T06:46:03.508Z,784.00
2018-03-21T06:47:03.518Z,832.00
2018-03-21T06:48:03.531Z,884.00
2018-03-21T06:49:03.539Z,904.00
2018-03-21T06:50:03.548Z,900.00
2018-03-21T06:51:03.560Z,928.00
2018-03-21T06:52:03.565Z,832.00
2018-03-21T06:53:03.572Z,872.00
2018-03-21T06:54:03.581Z,896.00
2018-03-21T06:55:03.597Z,916.00
2018-03-21T06:56:03.602Z,928.00
2018-03-21T06:57:03.611Z,896.00
2018-03-21T06:59:03.629Z,904.00
2018-03-21T07:00:03.639Z,888.00
2018-03-21T07:01:03.647Z,844.00
2018-03-21T07:02:03.656Z,852.00
2018-03-21T07:03:03.669Z,908.00
2018-03-21T07:04:03.675Z,940.00
2018-03-21T07:05:03.686Z,928.00
2018-03-21T07:06:03.692Z,884.00
2018-03-21T07:07:03.704Z,940.00
2018-03-21T07:08:03.721Z,932.00
2018-03-21T07:09:03.721Z,1000.00
2018-03-21T07:10:03.740Z,1036.00
2018-03-21T07:11:03.739Z,1020.00
2018-03-21T07:12:03.749Z,1064.00
2018-03-21T07:13:03.757Z,1140.00
2018-03-21T07:14:03.766Z,1040.00
2018-03-21T07:15:03.778Z,1000.00
2018-03-21T07:16:03.788Z,940.00
2018-03-21T07:17:03.812Z,996.00
2018-03-21T07:18:03.805Z,1024.00
2018-03-21T07:19:04.443Z,984.00
2018-03-21T07:20:03.822Z,956.00
2018-03-21T07:21:03.829Z,932.00
2018-03-21T07:22:03.841Z,1028.00
2018-03-21T07:23:03.864Z,1068.00
2018-03-21T07:24:03.859Z,1040.00
2018-03-21T07:25:03.868Z,1000.00
2018-03-21T07:26:03.879Z,940.00
2018-03-21T07:27:03.894Z,980.00
2018-03-21T07:28:03.902Z,1056.00
2018-03-21T07:29:03.907Z,1012.00
2018-03-21T07:30:03.920Z,948.00
2018-03-21T07:31:03.926Z,980.00
2018-03-21T07:32:03.936Z,1028.00
2018-03-21T07:33:03.945Z,1108.00
2018-03-21T07:34:03.952Z,1192.00
2018-03-21T07:35:03.963Z,1204.00
2018-03-21T07:36:03.977Z,1168.00
2018-03-21T07:37:03.982Z,1132.00
2018-03-21T07:38:03.991Z,1168.00
2018-03-21T07:39:04.012Z,1180.00
2018-03-21T07:40:04.011Z,1172.00
2018-03-21T07:41:04.024Z,1200.00
2018-03-21T07:42:04.032Z,1244.00
2018-03-21T07:43:04.045Z,1220.00
2018-03-21T07:44:04.049Z,1416.00
2018-03-21T07:45:04.074Z,1368.00
2018-03-21T07:46:04.066Z,1336.00
2018-03-21T07:47:04.078Z,1324.00
2018-03-21T07:48:04.095Z,1360.00
2018-03-21T07:49:04.097Z,1344.00
2018-03-21T07:50:04.104Z,1308.00
2018-03-21T07:51:04.134Z,1284.00
2018-03-21T07:52:04.117Z,1300.00
2018-03-21T07:53:04.128Z,1324.00
2018-03-21T07:54:04.137Z,1328.00
2018-03-21T07:55:04.179Z,1260.00
2018-03-21T07:56:04.155Z,1208.00
2018-03-21T07:57:04.178Z,1348.00
2018-03-21T07:58:04.175Z,1428.00
2018-03-21T07:59:04.188Z,1516.00
2018-03-21T08:00:04.196Z,1428.00
2018-03-21T08:01:04.216Z,1412.00
2018-03-21T08:02:04.217Z,1392.00
2018-03-21T08:03:04.223Z,1348.00
2018-03-21T08:04:04.232Z,1484.00
2018-03-21T08:06:04.275Z,1664.00
2018-03-21T08:07:04.484Z,1568.00
2018-03-21T08:08:04.275Z,1948.00
2018-03-21T08:09:04.286Z,2036.00
2018-03-21T08:10:04.294Z,2028.00
2018-03-21T08:11:04.304Z,1944.00
2018-03-21T08:12:04.313Z,1948.00
2018-03-21T08:13:04.323Z,2012.00
2018-03-21T08:14:04.333Z,2104.00
2018-03-21T08:15:04.393Z,2112.00
2018-03-21T08:16:04.352Z,2244.00
2018-03-21T08:17:04.362Z,2108.00
2018-03-21T08:18:04.380Z,2304.00
2018-03-21T08:19:04.387Z,2300.00
2018-03-21T08:20:04.391Z,2116.00
2018-03-21T08:21:04.415Z,2104.00
2018-03-21T08:22:04.413Z,2184.00
2018-03-21T08:23:04.426Z,2456.00
2018-03-21T08:24:04.433Z,2544.00
2018-03-21T08:25:04.549Z,2316.00
2018-03-21T08:26:04.460Z,2196.00
2018-03-21T08:27:04.475Z,2172.00
2018-03-21T08:28:04.482Z,2156.00
2018-03-21T08:29:04.516Z,2400.00
2018-03-21T08:30:04.498Z,2496.00
2018-03-21T08:31:04.512Z,2384.00
2018-03-21T08:32:04.521Z,2608.00
2018-03-21T08:33:04.745Z,2908.00
2018-03-21T08:34:04.702Z,2784.00
2018-03-21T08:35:05.587Z,2456.00
2018-03-21T08:36:04.560Z,2640.00
2018-03-21T08:37:04.569Z,2892.00
2018-03-21T08:38:04.580Z,2456.00
2018-03-21T08:39:04.602Z,2084.00
2018-03-21T08:40:04.601Z,2132.00
2018-03-21T08:41:04.613Z,2332.00
2018-03-21T08:42:04.623Z,2320.00
2018-03-21T08:43:04.632Z,2476.00
2018-03-21T08:44:04.644Z,2640.00
2018-03-21T08:45:04.668Z,2500.00
2018-03-21T08:46:04.693Z,2584.00
2018-03-21T08:47:04.676Z,2584.00
2018-03-21T08:48:04.683Z,2356.00
2018-03-21T08:49:04.696Z,2068.00
2018-03-21T08:50:04.706Z,2192.00
2018-03-21T08:51:04.717Z,2392.00
2018-03-21T08:52:04.728Z,2636.00
2018-03-21T08:53:04.741Z,2892.00
2018-03-21T08:54:04.750Z,3088.00
2018-03-21T08:55:04.762Z,2768.00
2018-03-21T08:56:04.772Z,2576.00
2018-03-21T08:57:04.784Z,2652.00
2018-03-21T08:58:04.795Z,2960.00
2018-03-21T08:59:04.806Z,3260.00
2018-03-21T09:00:04.813Z,3440.00
2018-03-21T09:01:09.164Z,2772.00
2018-03-21T09:03:04.851Z,3000.00
2018-03-21T09:04:04.859Z,2904.00
2018-03-21T09:05:04.892Z,2968.00
2018-03-21T09:06:04.886Z,3076.00
2018-03-21T09:07:04.996Z,3076.00
2018-03-21T09:08:04.904Z,3044.00
2018-03-21T09:09:04.924Z,2992.00
2018-03-21T09:10:04.927Z,2892.00
2018-03-21T09:11:04.945Z,2796.00
2018-03-21T09:12:04.950Z,2520.00
2018-03-21T09:13:05.001Z,2300.00
2018-03-21T09:14:04.980Z,2104.00
2018-03-21T09:15:04.985Z,2016.00
2018-03-21T09:16:04.997Z,2136.00
2018-03-21T09:17:05.010Z,2272.00
2018-03-21T09:18:05.037Z,2744.00
2018-03-21T09:19:05.031Z,3568.00
2018-03-21T09:20:05.041Z,4328.00
2018-03-21T09:21:05.051Z,4708.00
2018-03-21T09:22:06.048Z,4524.00
2018-03-21T09:23:05.076Z,3264.00
2018-03-21T09:24:05.089Z,2568.00
2018-03-21T09:25:05.106Z,2440.00
2018-03-21T09:26:05.150Z,2564.00
2018-03-21T09:27:05.119Z,3112.00
2018-03-21T09:28:05.135Z,3872.00
2018-03-21T09:29:05.163Z,4068.00
2018-03-21T09:30:05.159Z,3912.00
2018-03-21T09:31:05.367Z,3208.00
2018-03-21T09:32:05.187Z,2892.00
2018-03-21T09:33:05.209Z,2628.00
2018-03-21T09:34:05.201Z,2468.00
2018-03-21T09:35:05.214Z,2564.00
2018-03-21T09:36:05.246Z,2828.00
2018-03-21T09:37:05.373Z,2392.00
2018-03-21T09:38:05.245Z,2068.00
2018-03-21T09:39:05.436Z,2636.00
2018-03-21T09:40:05.372Z,3188.00
2018-03-21T09:41:05.280Z,3524.00
2018-03-21T09:42:05.292Z,3500.00
2018-03-21T09:43:05.305Z,3832.00
2018-03-21T09:44:05.317Z,4044.00
2018-03-21T09:45:05.330Z,3644.00
2018-03-21T09:46:05.339Z,3928.00
2018-03-21T09:47:05.353Z,4212.00
2018-03-21T09:48:05.364Z,4380.00
2018-03-21T09:49:05.393Z,4536.00
2018-03-21T09:50:05.383Z,4660.00
2018-03-21T09:51:05.394Z,6324.00
2018-03-21T09:52:05.402Z,5948.00
2018-03-21T09:53:05.431Z,5312.00
2018-03-21T09:54:05.428Z,5048.00
2018-03-21T09:55:05.451Z,5572.00
2018-03-21T09:56:05.451Z,4996.00
2018-03-21T09:57:05.463Z,6380.00
2018-03-21T09:58:05.481Z,4860.00
2018-03-21T09:59:05.749Z,4720.00
2018-03-21T10:00:06.570Z,4440.00
2018-03-21T10:01:05.513Z,4540.00
2018-03-21T10:02:05.527Z,5556.00
2018-03-21T10:03:05.548Z,4232.00
2018-03-21T10:04:05.551Z,2744.00
2018-03-21T10:05:05.571Z,2368.00
2018-03-21T10:06:05.582Z,2532.00
2018-03-21T10:07:05.588Z,2916.00
2018-03-21T10:08:05.598Z,3264.00
2018-03-21T10:09:05.610Z,3512.00
2018-03-21T10:10:05.625Z,3680.00
2018-03-21T10:11:05.636Z,3908.00
2018-03-21T10:12:05.648Z,3516.00
2018-03-21T10:13:05.675Z,3396.00
2018-03-21T10:14:05.673Z,3100.00
2018-03-21T10:15:05.685Z,2744.00
2018-03-21T10:16:05.703Z,2536.00
2018-03-21T10:17:05.711Z,2464.00
2018-03-21T10:18:05.723Z,2388.00
2018-03-21T10:19:05.735Z,2492.00
2018-03-21T10:20:05.748Z,2424.00
2018-03-21T10:21:05.757Z,2508.00
2018-03-21T10:22:05.772Z,2808.00
2018-03-21T10:23:05.783Z,3124.00
2018-03-21T10:24:05.866Z,3160.00
2018-03-21T10:25:05.805Z,3444.00
2018-03-21T10:26:06.978Z,4008.00
2018-03-21T10:27:05.848Z,4384.00
2018-03-21T10:28:05.842Z,4144.00
2018-03-21T10:29:05.855Z,4832.00
2018-03-21T10:30:05.872Z,3216.00
2018-03-21T10:31:05.879Z,3524.00
2018-03-21T10:32:05.912Z,3588.00
2018-03-21T10:33:05.915Z,3816.00
2018-03-21T10:34:05.915Z,3948.00
2018-03-21T10:35:05.939Z,3940.00
2018-03-21T10:36:05.948Z,3088.00
2018-03-21T10:37:05.954Z,2596.00
2018-03-21T10:38:05.967Z,2620.00
2018-03-21T10:39:06.059Z,3152.00
2018-03-21T10:40:05.994Z,3812.00
2018-03-21T10:41:06.000Z,4272.00
2018-03-21T10:42:06.015Z,4416.00
2018-03-21T10:43:06.025Z,4488.00
2018-03-21T10:44:06.041Z,5960.00
2018-03-21T10:45:06.106Z,4764.00
2018-03-21T10:46:06.063Z,3512.00
2018-03-21T10:47:06.080Z,3164.00
2018-03-21T10:48:06.093Z,2972.00
2018-03-21T10:49:06.207Z,2712.00
2018-03-21T10:50:06.115Z,2452.00
2018-03-21T10:51:06.131Z,2420.00
2018-03-21T10:52:06.140Z,2472.00
2018-03-21T10:53:06.150Z,2364.00
2018-03-21T10:54:06.192Z,2156.00
2018-03-21T10:55:06.180Z,1932.00
2018-03-21T10:56:06.196Z,1840.00
2018-03-21T10:57:06.213Z,1956.00
2018-03-21T10:58:06.214Z,2192.00
2018-03-21T10:59:06.234Z,2460.00
2018-03-21T11:00:06.239Z,2540.00
2018-03-21T11:01:06.452Z,2472.00
2018-03-21T11:02:06.329Z,2400.00
2018-03-21T11:03:06.275Z,2472.00
2018-03-21T11:04:06.288Z,2540.00
2018-03-21T11:05:06.300Z,2572.00
2018-03-21T11:06:06.318Z,2688.00
2018-03-21T11:07:06.332Z,2416.00
2018-03-21T11:08:06.358Z,1564.00
2018-03-21T11:09:06.403Z,1348.00
2018-03-21T11:10:06.360Z,1464.00
2018-03-21T11:11:06.376Z,1752.00
2018-03-21T11:12:06.389Z,2296.00
2018-03-21T11:13:06.397Z,3000.00
2018-03-21T11:14:06.415Z,3432.00
2018-03-21T11:15:06.420Z,3524.00
2018-03-21T11:16:06.432Z,3676.00
2018-03-21T11:17:06.449Z,3976.00
2018-03-21T11:18:06.457Z,4460.00
2018-03-21T11:19:06.468Z,4516.00
2018-03-21T11:20:06.493Z,4516.00
2018-03-21T11:21:06.493Z,4628.00
2018-03-21T11:22:06.506Z,4388.00
2018-03-21T11:23:06.518Z,4124.00
2018-03-21T11:24:06.531Z,4116.00
2018-03-21T11:25:06.541Z,4364.00
2018-03-21T11:26:06.556Z,4660.00
2018-03-21T11:27:06.571Z,4640.00
2018-03-21T11:28:06.579Z,4392.00
2018-03-21T11:29:06.643Z,3968.00
2018-03-21T11:30:06.600Z,3532.00
2018-03-21T11:31:06.616Z,3360.00
2018-03-21T11:32:06.638Z,3584.00
2018-03-21T11:33:06.646Z,3960.00
2018-03-21T11:34:06.681Z,4700.00
2018-03-21T11:35:06.662Z,4844.00
2018-03-21T11:36:06.674Z,5584.00
2018-03-21T11:37:06.715Z,7380.00
2018-03-21T11:38:06.702Z,7328.00
2018-03-21T11:39:06.764Z,7724.00
2018-03-21T11:40:06.724Z,7840.00
2018-03-21T11:41:06.735Z,7492.00
2018-03-21T11:42:06.749Z,5600.00
2018-03-21T11:43:06.762Z,5704.00
2018-03-21T11:44:06.778Z,5156.00
2018-03-21T11:45:06.786Z,5584.00
2018-03-21T11:46:06.797Z,6156.00
2018-03-21T11:47:06.811Z,5444.00
2018-03-21T11:48:06.822Z,7132.00
2018-03-21T11:49:06.841Z,7132.00
2018-03-21T11:50:06.854Z,6732.00
2018-03-21T11:51:06.880Z,7308.00
2018-03-21T11:52:06.882Z,7440.00
2018-03-21T11:53:06.886Z,7512.00
2018-03-21T11:54:06.901Z,7616.00
2018-03-21T11:55:06.924Z,7500.00
2018-03-21T11:56:06.940Z,7200.00
2018-03-21T11:57:06.946Z,6860.00
2018-03-21T11:58:06.959Z,6624.00
2018-03-21T11:59:06.969Z,4232.00
2018-03-21T12:00:06.981Z,4244.00
2018-03-21T12:01:07.003Z,4668.00
2018-03-21T12:02:07.015Z,4896.00
2018-03-21T12:03:07.027Z,5116.00
2018-03-21T12:04:07.035Z,5400.00
2018-03-21T12:05:07.050Z,6844.00
2018-03-21T12:06:07.068Z,5224.00
2018-03-21T12:07:07.085Z,4856.00
2018-03-21T12:08:07.091Z,5468.00
2018-03-21T12:09:07.104Z,4228.00
2018-03-21T12:10:07.124Z,4068.00
2018-03-21T12:11:07.132Z,4460.00
2018-03-21T12:12:07.146Z,4768.00
2018-03-21T12:13:07.245Z,4960.00
2018-03-21T12:14:07.179Z,5076.00
2018-03-21T12:15:07.540Z,4508.00
2018-03-21T12:16:07.198Z,3204.00
2018-03-21T12:17:07.208Z,2844.00
2018-03-21T12:18:07.232Z,2948.00
2018-03-21T12:19:07.239Z,3272.00
2018-03-21T12:20:07.279Z,3756.00
2018-03-21T12:21:07.265Z,3780.00
2018-03-21T12:22:07.288Z,4524.00
2018-03-21T12:23:07.295Z,5368.00
2018-03-21T12:24:07.311Z,3868.00
2018-03-21T12:25:07.325Z,4116.00
2018-03-21T12:26:07.339Z,4256.00
2018-03-21T12:27:07.338Z,3668.00
2018-03-21T12:28:07.353Z,3108.00
2018-03-21T12:29:07.375Z,2668.00
2018-03-21T12:30:07.384Z,2404.00
2018-03-21T12:31:07.399Z,2272.00
2018-03-21T12:32:07.412Z,2228.00
2018-03-21T12:33:07.422Z,2364.00
2018-03-21T12:34:07.432Z,2512.00
2018-03-21T12:35:07.446Z,2656.00
2018-03-21T12:36:07.466Z,2820.00
2018-03-21T12:37:07.469Z,2888.00
2018-03-21T12:38:07.486Z,2696.00
2018-03-21T12:39:07.491Z,2468.00
2018-03-21T12:40:07.523Z,2324.00
2018-03-21T12:41:07.518Z,2360.00
2018-03-21T12:42:08.182Z,2452.00